sensor_id;sensor_type;location;lat;lon;timestamp;pressure;altitude;pressure_sealevel;temperature;humidity
7524;BME280;3803;51.666;7.630;2022-11-20T00:00:18;100721.81;;;-3.87;63.15
7524;BME280;3803;51.666;7.630;2022-11-20T00:00:39;100715.59;;;-3.90;63.21
7524;BME280;3803;51.666;7.630;2022-11-20T00:01:15;100717.25;;;-3.91;63.18
7524;BME280;3803;51.666;7.630;2022-11-20T00:01:37;100707.53;;;-3.95;63.37
7524;BME280;3803;51.666;7.630;2022-11-20T00:01:57;100710.38;;;-3.92;63.47
7524;BME280;3803;51.666;7.630;2022-11-20T00:02:18;100718.16;;;-3.90;63.27
7524;BME280;3803;51.666;7.630;2022-11-20T00:02:38;100711.00;;;-3.94;63.25
7524;BME280;3803;51.666;7.630;2022-11-20T00:02:59;100724.91;;;-3.91;63.24
7524;BME280;3803;51.666;7.630;2022-11-20T00:03:21;100718.16;;;-3.90;62.97
7524;BME280;3803;51.666;7.630;2022-11-20T00:03:41;100725.91;;;-3.89;63.16
7524;BME280;3803;51.666;7.630;2022-11-20T00:04:02;100718.50;;;-3.96;63.28
7524;BME280;3803;51.666;7.630;2022-11-20T00:04:23;100708.28;;;-3.96;63.11
7524;BME280;3803;51.666;7.630;2022-11-20T00:04:43;100725.91;;;-3.89;63.40
7524;BME280;3803;51.666;7.630;2022-11-20T00:05:04;100718.78;;;-3.93;63.18
7524;BME280;3803;51.666;7.630;2022-11-20T00:05:25;100701.28;;;-3.98;63.20
7524;BME280;3803;51.666;7.630;2022-11-20T00:05:45;100701.28;;;-3.98;63.29
7524;BME280;3803;51.666;7.630;2022-11-20T00:06:08;100723.34;;;-3.89;63.15
7524;BME280;3803;51.666;7.630;2022-11-20T00:06:29;100721.56;;;-3.90;63.21
7524;BME280;3803;51.666;7.630;2022-11-20T00:06:50;100707.28;;;-3.98;63.08
7524;BME280;3803;51.666;7.630;2022-11-20T00:07:10;100715.19;;;-3.95;63.16
7524;BME280;3803;51.666;7.630;2022-11-20T00:07:31;100718.00;;;-3.92;63.31
7524;BME280;3803;51.666;7.630;2022-11-20T00:07:51;100712.91;;;-3.92;62.95
7524;BME280;3803;51.666;7.630;2022-11-20T00:08:12;100710.22;;;-3.93;63.50
7524;BME280;3803;51.666;7.630;2022-11-20T00:08:33;100726.06;;;-3.87;63.39
7524;BME280;3803;51.666;7.630;2022-11-20T00:08:58;100712.00;;;-3.92;63.08
7524;BME280;3803;51.666;7.630;2022-11-20T00:09:20;100724.66;;;-3.83;63.02
7524;BME280;3803;51.666;7.630;2022-11-20T00:09:41;100704.97;;;-3.95;62.95
7524;BME280;3803;51.666;7.630;2022-11-20T00:10:01;100705.25;;;-3.92;63.03
7524;BME280;3803;51.666;7.630;2022-11-20T00:10:22;100702.44;;;-3.95;63.03
7524;BME280;3803;51.666;7.630;2022-11-20T00:10:42;100712.91;;;-3.92;63.29
7524;BME280;3803;51.666;7.630;2022-11-20T00:11:07;100718.00;;;-3.92;63.15
7524;BME280;3803;51.666;7.630;2022-11-20T00:11:29;100704.88;;;-3.96;62.72
7524;BME280;3803;51.666;7.630;2022-11-20T00:11:50;100712.38;;;-3.98;62.95
7524;BME280;3803;51.666;7.630;2022-11-20T00:12:10;100714.31;;;-3.95;63.16
7524;BME280;3803;51.666;7.630;2022-11-20T00:12:31;100713.91;;;-4.00;62.98
7524;BME280;3803;51.666;7.630;2022-11-20T00:12:52;100711.38;;;-4.00;62.98
7524;BME280;3803;51.666;7.630;2022-11-20T00:13:12;100730.91;;;-3.90;62.95
7524;BME280;3803;51.666;7.630;2022-11-20T00:13:33;100716.19;;;-4.03;62.76
7524;BME280;3803;51.666;7.630;2022-11-20T00:13:57;100731.38;;;-3.94;63.05
7524;BME280;3803;51.666;7.630;2022-11-20T00:14:17;100722.31;;;-4.01;62.82
7524;BME280;3803;51.666;7.630;2022-11-20T00:14:38;100724.38;;;-3.97;62.86
7524;BME280;3803;51.666;7.630;2022-11-20T00:14:58;100716.31;;;-4.02;63.17
7524;BME280;3803;51.666;7.630;2022-11-20T00:15:19;100719.88;;;-3.99;62.80
7524;BME280;3803;51.666;7.630;2022-11-20T00:15:40;100727.69;;;-3.98;62.84
7524;BME280;3803;51.666;7.630;2022-11-20T00:16:02;100725.28;;;-3.96;62.87
7524;BME280;3803;51.666;7.630;2022-11-20T00:16:24;100719.00;;;-4.00;63.16
7524;BME280;3803;51.666;7.630;2022-11-20T00:16:45;100721.94;;;-3.95;62.99
7524;BME280;3803;51.666;7.630;2022-11-20T00:17:05;100721.03;;;-3.96;63.17
7524;BME280;3803;51.666;7.630;2022-11-20T00:17:26;100728.22;;;-3.92;63.44
7524;BME280;3803;51.666;7.630;2022-11-20T00:17:46;100720.56;;;-3.92;63.18
7524;BME280;3803;51.666;7.630;2022-11-20T00:18:07;100728.75;;;-3.85;63.23
7524;BME280;3803;51.666;7.630;2022-11-20T00:18:28;100719.03;;;-3.90;63.11
7524;BME280;3803;51.666;7.630;2022-11-20T00:18:49;100730.78;;;-3.81;63.22
7524;BME280;3803;51.666;7.630;2022-11-20T00:19:09;100726.19;;;-3.85;62.91
7524;BME280;3803;51.666;7.630;2022-11-20T00:19:30;100724.78;;;-3.82;63.05
7524;BME280;3803;51.666;7.630;2022-11-20T00:19:51;100717.50;;;-3.88;62.73
7524;BME280;3803;51.666;7.630;2022-11-20T00:20:11;100720.94;;;-3.87;63.03
7524;BME280;3803;51.666;7.630;2022-11-20T00:20:33;100732.56;;;-3.80;63.21
7524;BME280;3803;51.666;7.630;2022-11-20T00:21:00;100735.00;;;-3.82;62.95
7524;BME280;3803;51.666;7.630;2022-11-20T00:21:25;100724.13;;;-3.79;62.87
7524;BME280;3803;51.666;7.630;2022-11-20T00:21:46;100722.09;;;-3.83;62.89
7524;BME280;3803;51.666;7.630;2022-11-20T00:22:07;100710.75;;;-3.87;62.92
7524;BME280;3803;51.666;7.630;2022-11-20T00:22:27;100714.94;;;-3.88;62.88
7524;BME280;3803;51.666;7.630;2022-11-20T00:22:49;100718.53;;;-3.85;63.08
7524;BME280;3803;51.666;7.630;2022-11-20T00:23:10;100718.25;;;-3.89;62.83
7524;BME280;3803;51.666;7.630;2022-11-20T00:23:31;100721.56;;;-3.90;62.80
7524;BME280;3803;51.666;7.630;2022-11-20T00:23:54;100719.78;;;-3.91;63.00
7524;BME280;3803;51.666;7.630;2022-11-20T00:24:15;100713.41;;;-3.96;63.01
7524;BME280;3803;51.666;7.630;2022-11-20T00:24:35;100717.00;;;-3.94;63.14
7524;BME280;3803;51.666;7.630;2022-11-20T00:24:56;100726.69;;;-3.90;63.03
7524;BME280;3803;51.666;7.630;2022-11-20T00:25:18;100709.06;;;-3.97;63.10
7524;BME280;3803;51.666;7.630;2022-11-20T00:25:38;100715.31;;;-3.93;63.13
7524;BME280;3803;51.666;7.630;2022-11-20T00:26:06;100712.63;;;-3.95;63.05
7524;BME280;3803;51.666;7.630;2022-11-20T00:26:28;100724.91;;;-3.91;63.28
7524;BME280;3803;51.666;7.630;2022-11-20T00:26:49;100710.22;;;-3.93;63.11
7524;BME280;3803;51.666;7.630;2022-11-20T00:27:09;100723.25;;;-3.90;63.09
7524;BME280;3803;51.666;7.630;2022-11-20T00:27:30;100705.50;;;-3.99;62.88
7524;BME280;3803;51.666;7.630;2022-11-20T00:27:51;100717.47;;;-3.98;63.15
7524;BME280;3803;51.666;7.630;2022-11-20T00:28:11;100707.91;;;-4.01;62.98
7524;BME280;3803;51.666;7.630;2022-11-20T00:28:32;100723.75;;;-3.94;62.79
7524;BME280;3803;51.666;7.630;2022-11-20T00:28:55;100728.97;;;-3.93;63.12
7524;BME280;3803;51.666;7.630;2022-11-20T00:29:15;100731.53;;;-3.93;63.11
7524;BME280;3803;51.666;7.630;2022-11-20T00:29:36;100720.78;;;-3.99;63.21
7524;BME280;3803;51.666;7.630;2022-11-20T00:29:56;100710.06;;;-4.05;63.08
7524;BME280;3803;51.666;7.630;2022-11-20T00:30:17;100707.91;;;-4.01;63.17
7524;BME280;3803;51.666;7.630;2022-11-20T00:30:38;100706.75;;;-4.04;63.17
7524;BME280;3803;51.666;7.630;2022-11-20T00:31:22;100715.69;;;-3.99;63.18
7524;BME280;3803;51.666;7.630;2022-11-20T00:31:43;100718.38;;;-3.97;63.15
7524;BME280;3803;51.666;7.630;2022-11-20T00:32:04;100711.22;;;-4.02;63.10
7524;BME280;3803;51.666;7.630;2022-11-20T00:32:24;100702.66;;;-4.02;62.88
7524;BME280;3803;51.666;7.630;2022-11-20T00:32:45;100713.91;;;-4.00;63.35
7524;BME280;3803;51.666;7.630;2022-11-20T00:33:05;100715.69;;;-3.99;63.06
7524;BME280;3803;51.666;7.630;2022-11-20T00:33:27;100708.53;;;-4.03;62.99
7524;BME280;3803;51.666;7.630;2022-11-20T00:33:48;100715.94;;;-3.96;63.10
7524;BME280;3803;51.666;7.630;2022-11-20T00:34:09;100717.00;;;-3.94;63.24
7524;BME280;3803;51.666;7.630;2022-11-20T00:34:30;100720.28;;;-3.95;63.17
7524;BME280;3803;51.666;7.630;2022-11-20T00:34:50;100707.41;;;-3.96;63.22
7524;BME280;3803;51.666;7.630;2022-11-20T00:35:11;100710.84;;;-3.96;63.25
7524;BME280;3803;51.666;7.630;2022-11-20T00:35:32;100714.44;;;-3.94;63.46
7524;BME280;3803;51.666;7.630;2022-11-20T00:35:52;100714.56;;;-3.92;63.33
7524;BME280;3803;51.666;7.630;2022-11-20T00:36:17;100720.03;;;-3.88;63.23
7524;BME280;3803;51.666;7.630;2022-11-20T00:36:38;100706.78;;;-3.94;63.42
7524;BME280;3803;51.666;7.630;2022-11-20T00:36:58;100726.19;;;-3.85;63.37
7524;BME280;3803;51.666;7.630;2022-11-20T00:37:19;100700.53;;;-3.97;63.45
7524;BME280;3803;51.666;7.630;2022-11-20T00:37:40;100708.44;;;-3.94;63.30
7524;BME280;3803;51.666;7.630;2022-11-20T00:38:00;100720.81;;;-3.89;63.22
7524;BME280;3803;51.666;7.630;2022-11-20T00:38:21;100716.22;;;-3.93;63.47
7524;BME280;3803;51.666;7.630;2022-11-20T00:38:42;100707.13;;;-3.99;63.06
7524;BME280;3803;51.666;7.630;2022-11-20T00:39:02;100720.28;;;-3.95;63.24
7524;BME280;3803;51.666;7.630;2022-11-20T00:39:23;100721.81;;;-3.97;63.18
7524;BME280;3803;51.666;7.630;2022-11-20T00:39:44;100708.91;;;-3.98;63.33
7524;BME280;3803;51.666;7.630;2022-11-20T00:40:05;100716.72;;;-3.97;63.21
7524;BME280;3803;51.666;7.630;2022-11-20T00:40:25;100715.69;;;-3.99;63.39
7524;BME280;3803;51.666;7.630;2022-11-20T00:40:46;100726.91;;;-3.97;63.50
7524;BME280;3803;51.666;7.630;2022-11-20T00:41:14;100726.16;;;-3.96;63.35
7524;BME280;3803;51.666;7.630;2022-11-20T00:41:35;100717.22;;;-4.01;63.31
7524;BME280;3803;51.666;7.630;2022-11-20T00:41:56;100736.63;;;-3.93;63.57
7524;BME280;3803;51.666;7.630;2022-11-20T00:42:16;100724.13;;;-4.00;63.51
7524;BME280;3803;51.666;7.630;2022-11-20T00:42:37;100718.25;;;-3.99;63.55
7524;BME280;3803;51.666;7.630;2022-11-20T00:42:57;100734.56;;;-3.97;63.40
7524;BME280;3803;51.666;7.630;2022-11-20T00:43:18;100719.00;;;-4.00;63.11
7524;BME280;3803;51.666;7.630;2022-11-20T00:43:39;100733.03;;;-3.95;63.19
7524;BME280;3803;51.666;7.630;2022-11-20T00:44:00;100716.06;;;-4.05;63.31
7524;BME280;3803;51.666;7.630;2022-11-20T00:44:20;100725.34;;;-4.05;63.13
7524;BME280;3803;51.666;7.630;2022-11-20T00:44:41;100740.66;;;-3.95;63.23
7524;BME280;3803;51.666;7.630;2022-11-20T00:45:02;100726.28;;;-4.05;63.37
7524;BME280;3803;51.666;7.630;2022-11-20T00:45:22;100724.59;;;-4.04;63.27
7524;BME280;3803;51.666;7.630;2022-11-20T00:45:43;100729.06;;;-4.02;63.67
7524;BME280;3803;51.666;7.630;2022-11-20T00:46:13;100745.66;;;-3.96;63.37
7524;BME280;3803;51.666;7.630;2022-11-20T00:46:34;100714.16;;;-4.07;63.38
7524;BME280;3803;51.666;7.630;2022-11-20T00:46:54;100714.91;;;-4.08;63.51
7524;BME280;3803;51.666;7.630;2022-11-20T00:47:15;100715.69;;;-4.09;63.22
7524;BME280;3803;51.666;7.630;2022-11-20T00:47:35;100716.69;;;-4.07;63.44
7524;BME280;3803;51.666;7.630;2022-11-20T00:47:56;100733.25;;;-4.02;63.23
7524;BME280;3803;51.666;7.630;2022-11-20T00:48:17;100724.34;;;-4.07;63.32
7524;BME280;3803;51.666;7.630;2022-11-20T00:48:37;100714.63;;;-4.11;63.53
7524;BME280;3803;51.666;7.630;2022-11-20T00:48:58;100730.59;;;-4.04;63.42
7524;BME280;3803;51.666;7.630;2022-11-20T00:49:18;100724.97;;;-4.10;63.42
7524;BME280;3803;51.666;7.630;2022-11-20T00:49:39;100727.91;;;-4.05;63.12
7524;BME280;3803;51.666;7.630;2022-11-20T00:49:59;100715.75;;;-4.18;63.46
7524;BME280;3803;51.666;7.630;2022-11-20T00:50:20;100719.22;;;-4.18;63.28
7524;BME280;3803;51.666;7.630;2022-11-20T00:50:41;100716.78;;;-4.16;63.37
7524;BME280;3803;51.666;7.630;2022-11-20T00:51:02;100714.38;;;-4.15;63.38
7524;BME280;3803;51.666;7.630;2022-11-20T00:51:25;100719.72;;;-4.11;63.55
7524;BME280;3803;51.666;7.630;2022-11-20T00:51:46;100712.31;;;-4.19;63.49
7524;BME280;3803;51.666;7.630;2022-11-20T00:52:07;100716.69;;;-4.18;63.57
7524;BME280;3803;51.666;7.630;2022-11-20T00:52:27;100718.72;;;-4.13;63.35
7524;BME280;3803;51.666;7.630;2022-11-20T00:52:48;100718.06;;;-4.21;63.70
7524;BME280;3803;51.666;7.630;2022-11-20T00:53:09;100719.94;;;-4.29;63.84
7524;BME280;3803;51.666;7.630;2022-11-20T00:53:29;100726.81;;;-4.28;64.05
7524;BME280;3803;51.666;7.630;2022-11-20T00:53:50;100714.03;;;-4.38;64.20
7524;BME280;3803;51.666;7.630;2022-11-20T00:54:10;100715.81;;;-4.37;64.03
7524;BME280;3803;51.666;7.630;2022-11-20T00:54:31;100713.78;;;-4.42;64.23
7524;BME280;3803;51.666;7.630;2022-11-20T00:54:51;100718.22;;;-4.39;64.42
7524;BME280;3803;51.666;7.630;2022-11-20T00:55:12;100711.97;;;-4.43;64.18
7524;BME280;3803;51.666;7.630;2022-11-20T00:55:33;100706.63;;;-4.46;64.10
7524;BME280;3803;51.666;7.630;2022-11-20T00:55:58;100732.69;;;-4.19;64.30
7524;BME280;3803;51.666;7.630;2022-11-20T00:56:19;100721.00;;;-4.17;64.33
7524;BME280;3803;51.666;7.630;2022-11-20T00:56:40;100716.13;;;-4.24;64.16
7524;BME280;3803;51.666;7.630;2022-11-20T00:57:00;100711.28;;;-4.21;63.96
7524;BME280;3803;51.666;7.630;2022-11-20T00:57:21;100712.59;;;-4.16;64.07
7524;BME280;3803;51.666;7.630;2022-11-20T00:57:41;100727.38;;;-4.11;63.63
7524;BME280;3803;51.666;7.630;2022-11-20T00:58:04;100719.72;;;-4.11;64.07
7524;BME280;3803;51.666;7.630;2022-11-20T00:58:29;100707.22;;;-4.19;63.90
7524;BME280;3803;51.666;7.630;2022-11-20T00:58:50;100710.53;;;-4.20;63.57
7524;BME280;3803;51.666;7.630;2022-11-20T00:59:13;100719.47;;;-4.15;63.64
7524;BME280;3803;51.666;7.630;2022-11-20T00:59:34;100721.13;;;-4.15;63.38
7524;BME280;3803;51.666;7.630;2022-11-20T00:59:54;100723.94;;;-4.12;63.48
7524;BME280;3803;51.666;7.630;2022-11-20T01:00:15;100724.56;;;-4.15;63.40
7524;BME280;3803;51.666;7.630;2022-11-20T01:00:36;100734.53;;;-4.07;63.51
7524;BME280;3803;51.666;7.630;2022-11-20T01:01:04;100721.63;;;-4.19;63.40
7524;BME280;3803;51.666;7.630;2022-11-20T01:01:26;100723.66;;;-4.15;63.57
7524;BME280;3803;51.666;7.630;2022-11-20T01:01:47;100719.22;;;-4.18;63.61
7524;BME280;3803;51.666;7.630;2022-11-20T01:02:07;100724.94;;;-4.20;63.51
7524;BME280;3803;51.666;7.630;2022-11-20T01:02:28;100718.94;;;-4.21;63.53
7524;BME280;3803;51.666;7.630;2022-11-20T01:02:48;100724.31;;;-4.18;63.53
7524;BME280;3803;51.666;7.630;2022-11-20T01:03:09;100721.00;;;-4.17;63.36
7524;BME280;3803;51.666;7.630;2022-11-20T01:03:34;100725.34;;;-4.16;63.50
7524;BME280;3803;51.666;7.630;2022-11-20T01:03:57;100734.78;;;-4.15;63.66
7524;BME280;3803;51.666;7.630;2022-11-20T01:04:18;100722.66;;;-4.17;63.69
7524;BME280;3803;51.666;7.630;2022-11-20T01:04:39;100727.75;;;-4.17;63.61
7524;BME280;3803;51.666;7.630;2022-11-20T01:04:59;100718.94;;;-4.21;63.42
7524;BME280;3803;51.666;7.630;2022-11-20T01:05:20;100738.63;;;-4.09;63.92
7524;BME280;3803;51.666;7.630;2022-11-20T01:05:40;100742.94;;;-4.08;63.83
7524;BME280;3803;51.666;7.630;2022-11-20T01:06:03;100734.25;;;-4.10;63.51
7524;BME280;3803;51.666;7.630;2022-11-20T01:06:24;100745.00;;;-4.04;63.80
7524;BME280;3803;51.666;7.630;2022-11-20T01:06:45;100726.88;;;-4.18;63.33
7524;BME280;3803;51.666;7.630;2022-11-20T01:07:06;100730.28;;;-4.17;63.66
7524;BME280;3803;51.666;7.630;2022-11-20T01:07:26;100740.13;;;-4.11;63.68
7524;BME280;3803;51.666;7.630;2022-11-20T01:07:47;100737.56;;;-4.11;63.45
7524;BME280;3803;51.666;7.630;2022-11-20T01:08:08;100745.13;;;-4.03;63.62
7524;BME280;3803;51.666;7.630;2022-11-20T01:08:33;100749.31;;;-4.03;63.67
7524;BME280;3803;51.666;7.630;2022-11-20T01:08:56;100742.34;;;-4.06;63.62
7524;BME280;3803;51.666;7.630;2022-11-20T01:09:17;100740.41;;;-4.08;63.50
7524;BME280;3803;51.666;7.630;2022-11-20T01:09:38;100737.72;;;-4.10;63.67
7524;BME280;3803;51.666;7.630;2022-11-20T01:09:58;100742.19;;;-4.07;63.60
7524;BME280;3803;51.666;7.630;2022-11-20T01:10:19;100739.50;;;-4.09;63.17
7524;BME280;3803;51.666;7.630;2022-11-20T01:10:39;100738.63;;;-4.09;63.67
7524;BME280;3803;51.666;7.630;2022-11-20T01:11:02;100729.91;;;-4.11;63.39
7524;BME280;3803;51.666;7.630;2022-11-20T01:11:25;100736.19;;;-4.08;63.62
7524;BME280;3803;51.666;7.630;2022-11-20T01:11:46;100733.78;;;-4.06;63.57
7524;BME280;3803;51.666;7.630;2022-11-20T01:12:07;100742.94;;;-4.08;63.51
7524;BME280;3803;51.666;7.630;2022-11-20T01:12:27;100731.69;;;-4.10;63.62
7524;BME280;3803;51.666;7.630;2022-11-20T01:12:48;100738.72;;;-4.08;63.78
7524;BME280;3803;51.666;7.630;2022-11-20T01:13:29;100731.09;;;-4.08;63.01
7524;BME280;3803;51.666;7.630;2022-11-20T01:14:00;100747.81;;;-4.01;63.29
7524;BME280;3803;51.666;7.630;2022-11-20T01:14:22;100746.78;;;-4.03;63.37
7524;BME280;3803;51.666;7.630;2022-11-20T01:14:42;100725.19;;;-4.17;63.49
7524;BME280;3803;51.666;7.630;2022-11-20T01:15:03;100747.13;;;-4.09;63.51
7524;BME280;3803;51.666;7.630;2022-11-20T01:15:24;100736.31;;;-4.17;63.77
7524;BME280;3803;51.666;7.630;2022-11-20T01:15:44;100754.16;;;-4.06;63.58
7524;BME280;3803;51.666;7.630;2022-11-20T01:16:15;100733.75;;;-4.17;63.48
7524;BME280;3803;51.666;7.630;2022-11-20T01:16:39;100753.41;;;-4.05;63.60
7524;BME280;3803;51.666;7.630;2022-11-20T01:17:00;100736.41;;;-4.15;63.32
7524;BME280;3803;51.666;7.630;2022-11-20T01:17:20;100729.41;;;-4.18;63.43
7524;BME280;3803;51.666;7.630;2022-11-20T01:17:41;100729.41;;;-4.18;63.35
7524;BME280;3803;51.666;7.630;2022-11-20T01:18:01;100737.47;;;-4.13;63.57
7524;BME280;3803;51.666;7.630;2022-11-20T01:18:22;100729.66;;;-4.15;63.47
7524;BME280;3803;51.666;7.630;2022-11-20T01:18:45;100749.06;;;-4.06;63.32
7524;BME280;3803;51.666;7.630;2022-11-20T01:19:12;100738.63;;;-4.09;63.34
7524;BME280;3803;51.666;7.630;2022-11-20T01:19:32;100731.44;;;-4.13;63.47
7524;BME280;3803;51.666;7.630;2022-11-20T01:19:53;100725.44;;;-4.14;63.68
7524;BME280;3803;51.666;7.630;2022-11-20T01:20:14;100745.13;;;-4.03;63.36
7524;BME280;3803;51.666;7.630;2022-11-20T01:20:35;100730.06;;;-4.10;63.62
7524;BME280;3803;51.666;7.630;2022-11-20T01:21:02;100739.50;;;-3.98;63.69
7524;BME280;3803;51.666;7.630;2022-11-20T01:21:27;100722.03;;;-4.04;63.83
7524;BME280;3803;51.666;7.630;2022-11-20T01:21:50;100746.06;;;-3.92;63.74
7524;BME280;3803;51.666;7.630;2022-11-20T01:22:11;100730.63;;;-3.93;63.89
7524;BME280;3803;51.666;7.630;2022-11-20T01:22:32;100739.69;;;-3.87;63.67
7524;BME280;3803;51.666;7.630;2022-11-20T01:22:53;100724.25;;;-3.88;63.87
7524;BME280;3803;51.666;7.630;2022-11-20T01:23:13;100722.09;;;-3.83;63.84
7524;BME280;3803;51.666;7.630;2022-11-20T01:23:35;100722.25;;;-3.82;63.92
7524;BME280;3803;51.666;7.630;2022-11-20T01:23:56;100740.09;;;-3.71;64.14
7524;BME280;3803;51.666;7.630;2022-11-20T01:24:19;100732.19;;;-3.75;64.03
7524;BME280;3803;51.666;7.630;2022-11-20T01:24:40;100729.00;;;-3.72;64.08
7524;BME280;3803;51.666;7.630;2022-11-20T01:25:00;100726.84;;;-3.67;64.26
7524;BME280;3803;51.666;7.630;2022-11-20T01:25:21;100722.88;;;-3.64;64.00
7524;BME280;3803;51.666;7.630;2022-11-20T01:25:41;100728.66;;;-3.56;64.18
7524;BME280;3803;51.666;7.630;2022-11-20T01:26:04;100727.63;;;-3.48;63.92
7524;BME280;3803;51.666;7.630;2022-11-20T01:26:27;100730.81;;;-3.40;64.21
7524;BME280;3803;51.666;7.630;2022-11-20T01:26:50;100715.75;;;-3.47;64.17
7524;BME280;3803;51.666;7.630;2022-11-20T01:27:10;100723.44;;;-3.37;64.28
7524;BME280;3803;51.666;7.630;2022-11-20T01:27:31;100711.81;;;-3.33;64.11
7524;BME280;3803;51.666;7.630;2022-11-20T01:27:51;100716.28;;;-3.30;64.17
7524;BME280;3803;51.666;7.630;2022-11-20T01:28:12;100709.66;;;-3.28;64.19
7524;BME280;3803;51.666;7.630;2022-11-20T01:28:33;100720.47;;;-3.21;64.08
7524;BME280;3803;51.666;7.630;2022-11-20T01:28:55;100729.41;;;-3.15;64.13
7524;BME280;3803;51.666;7.630;2022-11-20T01:29:23;100706.56;;;-3.24;63.82
7524;BME280;3803;51.666;7.630;2022-11-20T01:29:44;100717.53;;;-3.15;64.20
7524;BME280;3803;51.666;7.630;2022-11-20T01:30:05;100717.41;;;-3.06;64.02
7524;BME280;3803;51.666;7.630;2022-11-20T01:30:26;100717.41;;;-3.06;64.22
7524;BME280;3803;51.666;7.630;2022-11-20T01:30:47;100714.22;;;-3.03;63.96
7524;BME280;3803;51.666;7.630;2022-11-20T01:31:37;100713.94;;;-2.96;64.15
7524;BME280;3803;51.666;7.630;2022-11-20T01:31:57;100712.53;;;-3.03;64.07
7524;BME280;3803;51.666;7.630;2022-11-20T01:32:18;100724.53;;;-2.92;64.06
7524;BME280;3803;51.666;7.630;2022-11-20T01:32:39;100716.75;;;-2.93;63.96
7524;BME280;3803;51.666;7.630;2022-11-20T01:32:59;100722.88;;;-2.81;64.03
7524;BME280;3803;51.666;7.630;2022-11-20T01:33:20;100731.66;;;-2.77;63.56
7524;BME280;3803;51.666;7.630;2022-11-20T01:33:41;100732.53;;;-2.77;63.68
7524;BME280;3803;51.666;7.630;2022-11-20T01:34:09;100726.44;;;-2.79;63.98
7524;BME280;3803;51.666;7.630;2022-11-20T01:34:30;100726.16;;;-2.71;63.99
7524;BME280;3803;51.666;7.630;2022-11-20T01:34:50;100719.78;;;-2.77;63.92
7524;BME280;3803;51.666;7.630;2022-11-20T01:35:11;100714.78;;;-2.75;63.83
7524;BME280;3803;51.666;7.630;2022-11-20T01:35:31;100716.72;;;-2.72;64.11
7524;BME280;3803;51.666;7.630;2022-11-20T01:35:52;100729.22;;;-2.75;63.78
7524;BME280;3803;51.666;7.630;2022-11-20T01:36:15;100737.13;;;-2.62;63.56
7524;BME280;3803;51.666;7.630;2022-11-20T01:36:36;100726.66;;;-2.65;63.76
7524;BME280;3803;51.666;7.630;2022-11-20T01:36:57;100717.22;;;-2.66;63.74
7524;BME280;3803;51.666;7.630;2022-11-20T01:37:18;100729.03;;;-2.56;63.96
7524;BME280;3803;51.666;7.630;2022-11-20T01:37:38;100719.97;;;-2.53;63.73
7524;BME280;3803;51.666;7.630;2022-11-20T01:37:59;100729.13;;;-2.44;63.50
7524;BME280;3803;51.666;7.630;2022-11-20T01:38:19;100737.94;;;-2.41;63.43
7524;BME280;3803;51.666;7.630;2022-11-20T01:38:41;100719.03;;;-2.43;63.33
7524;BME280;3803;51.666;7.630;2022-11-20T01:39:09;100720.59;;;-2.45;63.46
7524;BME280;3803;51.666;7.630;2022-11-20T01:39:30;100734.47;;;-2.31;63.25
7524;BME280;3803;51.666;7.630;2022-11-20T01:39:51;100716.19;;;-2.36;63.04
7524;BME280;3803;51.666;7.630;2022-11-20T01:40:11;100717.09;;;-2.35;63.12
7524;BME280;3803;51.666;7.630;2022-11-20T01:40:32;100715.56;;;-2.33;62.99
7524;BME280;3803;51.666;7.630;2022-11-20T01:40:55;100720.25;;;-2.27;62.87
7524;BME280;3803;51.666;7.630;2022-11-20T01:41:16;100715.38;;;-2.24;62.62
7524;BME280;3803;51.666;7.630;2022-11-20T01:41:56;100720.09;;;-2.18;62.69
7524;BME280;3803;51.666;7.630;2022-11-20T01:42:34;100712.94;;;-2.23;62.79
7524;BME280;3803;51.666;7.630;2022-11-20T01:43:17;100715.84;;;-2.18;62.62
7524;BME280;3803;51.666;7.630;2022-11-20T01:43:41;100722.25;;;-2.13;62.40
7524;BME280;3803;51.666;7.630;2022-11-20T01:44:03;100719.69;;;-2.13;62.24
7524;BME280;3803;51.666;7.630;2022-11-20T01:46:17;100704.69;;;-2.08;61.91
7524;BME280;3803;51.666;7.630;2022-11-20T01:46:40;100717.41;;;-1.98;61.96
7524;BME280;3803;51.666;7.630;2022-11-20T01:47:04;100700.59;;;-2.06;61.97
7524;BME280;3803;51.666;7.630;2022-11-20T01:47:43;100707.75;;;-2.02;62.08
7524;BME280;3803;51.666;7.630;2022-11-20T01:48:05;100715.22;;;-1.93;62.06
7524;BME280;3803;51.666;7.630;2022-11-20T01:48:36;100708.31;;;-1.94;61.75
7524;BME280;3803;51.666;7.630;2022-11-20T01:49:03;100699.78;;;-1.95;62.09
7524;BME280;3803;51.666;7.630;2022-11-20T01:49:28;100691.84;;;-1.98;61.86
7524;BME280;3803;51.666;7.630;2022-11-20T01:49:55;100696.44;;;-1.93;61.84
7524;BME280;3803;51.666;7.630;2022-11-20T01:50:22;100687.97;;;-1.92;61.75
7524;BME280;3803;51.666;7.630;2022-11-20T01:50:50;100699.81;;;-1.83;62.06
7524;BME280;3803;51.666;7.630;2022-11-20T01:51:35;100684.78;;;-1.90;61.94
7524;BME280;3803;51.666;7.630;2022-11-20T01:52:15;100690.25;;;-1.85;61.93
7524;BME280;3803;51.666;7.630;2022-11-20T01:52:40;100686.13;;;-1.83;61.75
7524;BME280;3803;51.666;7.630;2022-11-20T01:53:08;100692.03;;;-1.84;62.00
7524;BME280;3803;51.666;7.630;2022-11-20T01:53:32;100691.13;;;-1.85;61.70
7524;BME280;3803;51.666;7.630;2022-11-20T01:53:58;100684.34;;;-1.84;61.60
7524;BME280;3803;51.666;7.630;2022-11-20T01:54:30;100688.69;;;-1.83;61.66
7524;BME280;3803;51.666;7.630;2022-11-20T01:54:56;100681.31;;;-1.90;62.02
7524;BME280;3803;51.666;7.630;2022-11-20T01:55:22;100694.06;;;-1.80;61.68
7524;BME280;3803;51.666;7.630;2022-11-20T01:55:47;100680.78;;;-1.86;61.46
7524;BME280;3803;51.666;7.630;2022-11-20T01:56:11;100679.53;;;-1.91;61.69
7524;BME280;3803;51.666;7.630;2022-11-20T01:56:37;100674.53;;;-1.90;61.78
7524;BME280;3803;51.666;7.630;2022-11-20T01:56:59;100698.13;;;-1.82;61.61
7524;BME280;3803;51.666;7.630;2022-11-20T01:57:21;100684.88;;;-1.88;61.71
7524;BME280;3803;51.666;7.630;2022-11-20T01:57:44;100688.69;;;-1.83;61.66
7524;BME280;3803;51.666;7.630;2022-11-20T01:58:05;100667.53;;;-1.92;61.73
7524;BME280;3803;51.666;7.630;2022-11-20T01:58:33;100688.47;;;-1.86;61.64
7524;BME280;3803;51.666;7.630;2022-11-20T01:58:58;100682.44;;;-1.87;61.75
7524;BME280;3803;51.666;7.630;2022-11-20T01:59:22;100675.97;;;-1.93;61.58
7524;BME280;3803;51.666;7.630;2022-11-20T01:59:48;100669.59;;;-1.99;61.61
7524;BME280;3803;51.666;7.630;2022-11-20T02:00:16;100671.16;;;-2.01;62.09
7524;BME280;3803;51.666;7.630;2022-11-20T02:00:37;100671.94;;;-2.02;62.02
7524;BME280;3803;51.666;7.630;2022-11-20T02:00:58;100691.06;;;-1.97;61.97
7524;BME280;3803;51.666;7.630;2022-11-20T02:01:20;100687.75;;;-1.96;62.24
7524;BME280;3803;51.666;7.630;2022-11-20T02:01:41;100683.03;;;-2.01;62.07
7524;BME280;3803;51.666;7.630;2022-11-20T02:02:02;100675.50;;;-2.00;62.15